Time;durP1;ratioP1;P1;durP2;ratioP2;P2;SDS_P1;SDS_P2;PMS_P1;PMS_P2;Temp;Humidity;BMP_temperature;BMP_pressure;BME280_temperature;BME280_humidity;BME280_pressure;Samples;Min_cycle;Max_cycle;Signal;HPM_P1;HPM_P2
2021/05/28 00:02:15;;;;;;;9.28;8.38;;;;;;;17.69;78.96;99358.56;1772735;79;21566;-73
2021/05/28 00:04:42;;;;;;;8.83;7.92;;;;;;;17.76;78.75;99356.92;1778838;79;21627;-74
2021/05/28 00:07:09;;;;;;;9.05;7.70;;;;;;;17.70;78.75;99352.22;1775037;79;21054;-74
2021/05/28 00:09:35;;;;;;;9.18;7.60;;;;;;;17.65;78.88;99354.55;1775682;79;21095;-74
2021/05/28 00:12:02;;;;;;;10.55;8.45;;;;;;;17.72;78.66;99354.73;1775541;79;21097;-74
2021/05/28 00:14:30;;;;;;;9.53;8.20;;;;;;;17.75;78.45;99355.72;1766276;79;21071;-74
2021/05/28 00:16:57;;;;;;;9.25;7.62;;;;;;;17.65;78.64;99354.04;1763552;79;21089;-73
2021/05/28 00:19:23;;;;;;;9.55;8.45;;;;;;;17.58;78.90;99343.65;1767677;79;21093;-74
2021/05/28 00:21:51;;;;;;;9.55;8.55;;;;;;;17.64;78.72;99353.70;1769003;79;21197;-74
2021/05/28 00:24:20;;;;;;;9.48;8.35;;;;;;;17.69;78.54;99347.36;1770486;79;21044;-73
2021/05/28 00:26:48;;;;;;;9.43;7.78;;;;;;;17.61;78.75;99351.84;1751469;80;21060;-74
2021/05/28 00:29:14;;;;;;;10.40;8.63;;;;;;;17.57;78.94;99347.83;1774427;79;21041;-73
2021/05/28 00:31:42;;;;;;;9.30;7.95;;;;;;;17.57;78.91;99345.16;1776873;79;21050;-74
2021/05/28 00:34:08;;;;;;;9.08;8.18;;;;;;;17.63;78.71;99344.51;1771442;79;21093;-74
2021/05/28 00:36:35;;;;;;;9.20;8.30;;;;;;;17.55;78.80;99341.31;1773915;80;21037;-73
2021/05/28 00:39:01;;;;;;;9.30;7.87;;;;;;;17.49;79.03;99348.64;1772568;79;21073;-74
2021/05/28 00:41:28;;;;;;;10.03;8.20;;;;;;;17.45;78.96;99346.79;1771247;79;21022;-73
2021/05/28 00:43:54;;;;;;;8.95;8.05;;;;;;;17.50;78.75;99340.45;1767952;79;21548;-73
2021/05/28 00:46:23;;;;;;;9.08;7.92;;;;;;;17.48;78.90;99332.27;1766153;79;21211;-74
2021/05/28 00:48:52;;;;;;;8.85;8.03;;;;;;;17.43;79.12;99336.78;1768764;79;21291;-74
2021/05/28 00:51:17;;;;;;;9.20;8.25;;;;;;;17.36;79.23;99329.06;1772280;79;21097;-73
2021/05/28 00:53:46;;;;;;;8.55;7.65;;;;;;;17.44;79.01;99327.77;1798163;78;21111;-74
2021/05/28 00:56:14;;;;;;;8.60;7.70;;;;;;;17.45;79.08;99328.08;1778861;78;21712;-73
2021/05/28 00:58:41;;;;;;;9.90;8.63;;;;;;;17.32;79.28;99325.88;1785277;80;21002;-74
2021/05/28 01:01:08;;;;;;;12.98;9.08;;;;;;;17.22;79.61;99327.02;1753498;80;21610;-74
2021/05/28 01:03:35;;;;;;;9.18;8.15;;;;;;;17.20;79.69;99326.67;1752763;80;21096;-73
2021/05/28 01:06:01;;;;;;;10.23;8.83;;;;;;;17.28;79.53;99326.38;1763763;80;21078;-73
2021/05/28 01:08:30;;;;;;;8.93;8.03;;;;;;;17.26;79.53;99327.03;1754247;80;21113;-73
2021/05/28 01:10:58;;;;;;;9.13;8.20;;;;;;;17.18;79.90;99331.33;1759388;80;21589;-73
2021/05/28 01:13:24;;;;;;;9.58;8.55;;;;;;;17.14;80.18;99333.17;1753812;80;21176;-73
2021/05/28 01:15:53;;;;;;;10.00;8.50;;;;;;;17.23;80.05;99342.05;1763763;80;21073;-73
2021/05/28 01:18:21;;;;;;;9.80;8.70;;;;;;;17.33;79.77;99340.09;1758555;80;21077;-73
2021/05/28 01:20:47;;;;;;;9.35;8.45;;;;;;;17.32;79.85;99327.72;1755271;80;21077;-73
2021/05/28 01:23:14;;;;;;;10.63;9.03;;;;;;;17.24;79.89;99323.19;1774935;79;21076;-73
2021/05/28 01:25:40;;;;;;;9.78;8.78;;;;;;;17.34;79.86;99331.05;1788623;79;21074;-73
2021/05/28 01:28:07;;;;;;;10.35;9.13;;;;;;;17.46;79.60;99322.25;1772009;79;21016;-73
2021/05/28 01:30:38;;;;;;;10.28;9.23;;;;;;;17.47;79.51;99319.92;1772055;79;21045;-73
2021/05/28 01:33:05;;;;;;;9.45;8.55;;;;;;;17.41;79.54;99328.59;1771090;79;21037;-73
2021/05/28 01:35:32;;;;;;;9.48;8.58;;;;;;;17.36;79.57;99318.38;1772554;79;21629;-74
2021/05/28 01:37:58;;;;;;;10.28;8.93;;;;;;;17.42;79.43;99321.73;1766012;80;22126;-73
2021/05/28 01:40:24;;;;;;;10.55;9.38;;;;;;;17.43;79.45;99330.09;1763843;79;21695;-73
2021/05/28 01:42:52;;;;;;;9.58;8.30;;;;;;;17.35;79.58;99320.70;1776738;79;21059;-74
2021/05/28 01:45:18;;;;;;;10.25;8.95;;;;;;;17.31;79.58;99326.04;1772502;79;21654;-73
2021/05/28 01:47:44;;;;;;;9.70;8.70;;;;;;;17.41;79.42;99313.38;1762955;80;21655;-73
2021/05/28 01:50:12;;;;;;;10.50;9.33;;;;;;;17.42;79.33;99320.91;1778521;79;21067;-73
2021/05/28 01:52:39;;;;;;;9.58;8.55;;;;;;;17.36;79.49;99330.40;1773396;79;21099;-74
2021/05/28 01:55:11;;;;;;;9.20;8.28;;;;;;;17.34;79.53;99321.21;1772211;79;21065;-73
2021/05/28 01:57:38;;;;;;;11.10;9.15;;;;;;;17.42;79.34;99325.75;1747414;80;21033;-73
2021/05/28 02:00:07;;;;;;;9.75;8.75;;;;;;;17.42;79.26;99324.41;1775729;79;21080;-73
2021/05/28 02:02:33;;;;;;;10.78;8.75;;;;;;;17.36;79.49;99328.55;1774614;80;21042;-74
2021/05/28 02:05:00;;;;;;;12.95;10.05;;;;;;;17.36;79.57;99327.21;1771262;79;21673;-73
2021/05/28 02:07:26;;;;;;;13.28;11.63;;;;;;;17.47;79.30;99331.95;1772615;79;21632;-73
2021/05/28 02:09:53;;;;;;;13.85;10.98;;;;;;;17.53;79.21;99331.27;1767143;79;21077;-74
2021/05/28 02:12:21;;;;;;;15.45;12.23;;;;;;;17.45;79.36;99333.42;1769125;79;21081;-73
2021/05/28 02:14:48;;;;;;;16.85;11.60;;;;;;;17.39;79.48;99327.91;1772656;80;21057;-73
2021/05/28 02:17:14;;;;;;;16.55;12.30;;;;;;;17.46;79.39;99327.09;1770118;79;21041;-73
2021/05/28 02:19:41;;;;;;;17.62;13.78;;;;;;;17.52;79.32;99327.77;1746062;80;21061;-73
2021/05/28 02:22:11;;;;;;;16.93;13.18;;;;;;;17.40;79.42;99334.92;1770514;79;21092;-74
2021/05/28 02:24:37;;;;;;;16.42;12.20;;;;;;;17.30;79.80;99327.89;1773119;79;21788;-74
2021/05/28 02:27:04;;;;;;;15.70;12.13;;;;;;;17.36;79.61;99331.73;1773867;79;21529;-74
2021/05/28 02:29:31;;;;;;;13.35;10.58;;;;;;;17.38;79.59;99329.75;1777324;79;21068;-74
2021/05/28 02:31:58;;;;;;;17.27;12.30;;;;;;;17.33;79.84;99330.73;1773891;79;21112;-74
2021/05/28 02:34:26;;;;;;;14.23;10.93;;;;;;;17.21;79.99;99327.50;1780992;79;20998;-74
2021/05/28 02:36:52;;;;;;;13.70;11.18;;;;;;;17.20;80.15;99325.34;1778336;79;21093;-73
2021/05/28 02:39:19;;;;;;;16.52;11.48;;;;;;;17.29;79.99;99312.84;1775441;79;21092;-75
2021/05/28 02:41:46;;;;;;;15.43;11.18;;;;;;;17.34;80.08;99308.33;1775745;79;21104;-75
2021/05/28 02:44:14;;;;;;;13.90;11.28;;;;;;;17.30;80.24;99306.51;1776945;79;21018;-74
2021/05/28 02:46:40;;;;;;;12.37;10.40;;;;;;;17.25;80.26;99306.64;1773131;79;21097;-74
2021/05/28 02:49:09;;;;;;;13.08;10.75;;;;;;;17.31;80.23;99312.68;1775809;79;21116;-74
2021/05/28 02:51:35;;;;;;;16.05;11.95;;;;;;;17.41;80.07;99310.70;1775184;79;21088;-74
2021/05/28 02:54:01;;;;;;;17.55;12.10;;;;;;;17.40;80.22;99302.85;1772047;79;21021;-74
2021/05/28 02:56:31;;;;;;;12.98;11.00;;;;;;;17.36;80.41;99297.81;1767037;79;21112;-74
2021/05/28 02:58:57;;;;;;;12.82;10.63;;;;;;;17.38;80.33;99295.00;1771717;79;21636;-74
2021/05/28 03:01:23;;;;;;;14.23;11.15;;;;;;;17.46;79.98;99301.69;1776156;79;21545;-74
2021/05/28 03:03:50;;;;;;;15.18;11.55;;;;;;;17.42;79.97;99296.34;1766585;79;21012;-74
2021/05/28 03:06:16;;;;;;;14.18;11.20;;;;;;;17.36;80.28;99303.16;1774139;79;21001;-73
2021/05/28 03:08:42;;;;;;;12.58;10.70;;;;;;;17.39;80.17;99299.32;1775712;79;21073;-74
2021/05/28 03:11:11;;;;;;;11.00;9.35;;;;;;;17.49;79.97;99296.03;1771305;79;21108;-74
2021/05/28 03:13:39;;;;;;;13.03;11.15;;;;;;;17.52;79.85;99301.55;1772051;79;21045;-74
2021/05/28 03:16:07;;;;;;;11.45;9.90;;;;;;;17.43;79.99;99291.82;1769617;79;21124;-74
2021/05/28 03:18:45;;;;;;;12.23;9.83;;;;;;;17.41;80.09;99291.98;1771796;79;21100;-74
2021/05/28 03:21:23;;;;;;;9.88;8.40;;;;;;;17.52;79.88;99298.88;1765765;79;21017;-74
2021/05/28 03:23:53;;;;;;;10.13;8.95;;;;;;;17.58;79.70;99296.03;1774103;79;21720;-74
2021/05/28 03:26:19;;;;;;;8.58;7.33;;;;;;;17.51;79.76;99299.36;1779133;79;21596;-74
2021/05/28 03:28:45;;;;;;;9.28;8.13;;;;;;;17.45;79.80;99297.34;1770316;79;21533;-74
2021/05/28 03:31:12;;;;;;;9.03;8.13;;;;;;;17.54;79.52;99302.20;1772547;79;21017;-74
2021/05/28 03:33:39;;;;;;;9.60;8.60;;;;;;;17.56;79.34;99302.03;1759040;79;21593;-74
2021/05/28 03:36:08;;;;;;;11.05;8.65;;;;;;;17.46;79.53;99303.03;1791795;78;21056;-74
2021/05/28 03:38:35;;;;;;;10.38;8.88;;;;;;;17.39;79.78;99299.32;1765896;80;21090;-74
2021/05/28 03:41:01;;;;;;;14.13;11.68;;;;;;;17.38;79.85;99302.16;1787397;78;21004;-74
2021/05/28 03:43:28;;;;;;;14.05;12.10;;;;;;;17.46;79.70;99301.69;1767757;79;21138;-74
2021/05/28 03:45:56;;;;;;;13.38;11.40;;;;;;;17.54;79.68;99298.20;1776280;78;21072;-74
2021/05/28 03:48:23;;;;;;;11.53;9.70;;;;;;;17.51;79.78;99304.70;1796274;78;21088;-74
2021/05/28 03:50:50;;;;;;;8.68;7.75;;;;;;;17.55;79.87;99308.41;1799792;78;21043;-74
2021/05/28 03:53:16;;;;;;;8.70;7.80;;;;;;;17.68;79.49;99311.42;1782712;78;21020;-75
2021/05/28 03:55:45;;;;;;;9.50;8.50;;;;;;;17.73;79.33;99308.27;1787821;78;21105;-75
2021/05/28 03:58:11;;;;;;;9.93;8.40;;;;;;;17.66;79.54;99308.06;1788184;79;21655;-75
2021/05/28 04:00:37;;;;;;;9.30;8.10;;;;;;;17.58;79.64;99316.09;1783424;79;22623;-75
2021/05/28 04:03:04;;;;;;;7.83;6.95;;;;;;;17.61;79.61;99314.41;1794419;78;21051;-75
2021/05/28 04:05:33;;;;;;;9.85;7.87;;;;;;;17.71;79.31;99323.15;1766434;79;21046;-75
2021/05/28 04:08:01;;;;;;;8.75;7.65;;;;;;;17.71;79.33;99319.14;1754850;80;21335;-76
2021/05/28 04:10:28;;;;;;;9.38;8.15;;;;;;;17.64;79.62;99326.95;1752409;81;21120;-74
2021/05/28 04:12:56;;;;;;;8.85;7.95;;;;;;;17.58;79.75;99318.25;1767184;79;21077;-74
2021/05/28 04:15:23;;;;;;;8.90;7.92;;;;;;;17.67;79.52;99312.42;1792040;78;21100;-75
2021/05/28 04:17:50;;;;;;;10.50;8.10;;;;;;;17.72;79.38;99314.61;1766163;80;21103;-74
2021/05/28 04:20:16;;;;;;;9.28;7.67;;;;;;;17.71;79.49;99324.48;1802063;78;21057;-74
2021/05/28 04:22:43;;;;;;;8.68;7.78;;;;;;;17.71;79.69;99327.16;1765631;79;21097;-74
2021/05/28 04:25:11;;;;;;;9.88;6.90;;;;;;;17.85;79.47;99327.84;1770560;80;21081;-74
2021/05/28 04:27:38;;;;;;;9.08;7.53;;;;;;;17.99;79.24;99326.86;1788686;79;20998;-74
2021/05/28 04:30:05;;;;;;;10.05;7.37;;;;;;;17.95;79.11;99322.86;1773619;80;21638;-74
2021/05/28 04:32:32;;;;;;;8.78;7.05;;;;;;;17.90;79.04;99315.28;1737639;80;20986;-75
2021/05/28 04:34:58;;;;;;;7.72;6.67;;;;;;;17.93;78.78;99323.03;1757189;80;21059;-75
2021/05/28 04:37:26;;;;;;;8.05;7.25;;;;;;;18.08;78.39;99316.52;1788715;80;21133;-74
2021/05/28 04:39:52;;;;;;;8.28;6.90;;;;;;;18.12;78.16;99315.17;1781769;79;21061;-75
2021/05/28 04:42:18;;;;;;;8.18;6.40;;;;;;;18.09;78.11;99314.16;1781823;79;21030;-75
2021/05/28 04:44:45;;;;;;;7.87;6.40;;;;;;;18.06;77.94;99317.18;1756152;80;21081;-76
2021/05/28 04:47:11;;;;;;;7.72;6.25;;;;;;;18.11;77.51;99319.37;1764476;79;21167;-75
2021/05/28 04:49:37;;;;;;;8.75;7.03;;;;;;;18.17;77.26;99316.84;1773433;79;21098;-74
2021/05/28 04:52:04;;;;;;;9.10;7.12;;;;;;;18.15;77.36;99322.86;1757403;79;21068;-75
2021/05/28 04:54:32;;;;;;;11.60;9.20;;;;;;;18.12;77.53;99310.31;1769206;80;21076;-75
2021/05/28 04:57:00;;;;;;;15.08;9.75;;;;;;;18.17;77.27;99311.98;1774424;79;22297;-76
2021/05/28 04:59:27;;;;;;;8.90;6.58;;;;;;;18.27;77.05;99307.80;1774628;80;21585;-74
2021/05/28 05:01:54;;;;;;;9.63;6.85;;;;;;;18.28;76.46;99305.47;1751176;80;21046;-75
2021/05/28 05:04:20;;;;;;;9.03;7.30;;;;;;;18.27;76.07;99300.59;1768881;79;22184;-76
2021/05/28 05:06:47;;;;;;;9.98;7.53;;;;;;;18.26;76.20;99306.98;1772071;79;21062;-74
2021/05/28 05:09:14;;;;;;;8.60;7.30;;;;;;;18.31;75.86;99305.11;1777682;79;21648;-75
2021/05/28 05:11:40;;;;;;;8.93;7.15;;;;;;;18.42;75.39;99306.11;1743149;80;21113;-75
2021/05/28 05:14:07;;;;;;;9.45;7.97;;;;;;;18.47;74.86;99307.77;1776530;78;21026;-75
2021/05/28 05:16:34;;;;;;;9.85;6.75;;;;;;;18.45;74.71;99312.96;1813623;78;21042;-75
2021/05/28 05:19:01;;;;;;;6.62;5.92;;;;;;;18.45;74.35;99312.48;1742444;80;21066;-75
2021/05/28 05:21:28;;;;;;;10.63;7.30;;;;;;;18.58;73.47;99318.64;1754223;80;21056;-74
2021/05/28 05:23:55;;;;;;;8.98;7.85;;;;;;;18.56;73.28;99313.13;1763255;79;21062;-74
2021/05/28 05:26:21;;;;;;;8.53;7.33;;;;;;;18.46;73.79;99320.00;1776603;79;21069;-74
2021/05/28 05:28:49;;;;;;;15.85;12.88;;;;;;;18.46;74.15;99318.14;1764497;80;21054;-74
2021/05/28 05:31:15;;;;;;;38.23;34.15;;;;;;;18.62;74.13;99319.11;1756519;80;21699;-74
2021/05/28 05:33:41;;;;;;;12.20;9.70;;;;;;;18.71;73.90;99319.94;1757523;80;21029;-75
2021/05/28 05:36:08;;;;;;;9.70;7.05;;;;;;;18.66;73.96;99328.50;1782035;79;21557;-75
2021/05/28 05:38:34;;;;;;;10.18;6.28;;;;;;;18.67;74.28;99326.16;1788013;80;21055;-75
2021/05/28 05:41:00;;;;;;;8.78;5.85;;;;;;;18.70;74.11;99319.11;1760520;80;21088;-75
2021/05/28 05:43:27;;;;;;;8.85;5.67;;;;;;;18.76;73.01;99322.94;1765627;78;21158;-76
2021/05/28 05:45:53;;;;;;;7.60;5.83;;;;;;;18.82;72.49;99327.61;1748444;80;21642;-76
2021/05/28 05:48:20;;;;;;;7.78;5.75;;;;;;;18.75;72.30;99327.98;1763046;79;21167;-78
2021/05/28 05:50:47;;;;;;;9.73;6.33;;;;;;;18.65;72.22;99318.79;1780796;80;21638;-76
2021/05/28 05:53:13;;;;;;;12.05;6.55;;;;;;;18.58;72.04;99317.30;1796620;78;21062;-76
2021/05/28 05:55:39;;;;;;;8.23;6.42;;;;;;;18.66;72.02;99323.15;1780058;78;21030;-77
2021/05/28 05:58:05;;;;;;;10.85;7.47;;;;;;;18.85;71.55;99315.23;1790439;78;21588;-78
2021/05/28 06:00:32;;;;;;;10.45;8.43;;;;;;;18.90;71.55;99314.72;1751266;80;21054;-76
2021/05/28 06:02:58;;;;;;;9.45;7.35;;;;;;;18.90;71.47;99317.41;1780775;79;21550;-75
2021/05/28 06:05:24;;;;;;;9.85;7.42;;;;;;;18.95;71.52;99321.73;1761748;79;22181;-76
2021/05/28 06:07:51;;;;;;;9.15;7.47;;;;;;;19.10;71.43;99319.18;1747176;80;21034;-75
2021/05/28 06:10:17;;;;;;;12.10;9.33;;;;;;;19.14;71.60;99325.38;1802744;78;21028;-75
2021/05/28 06:12:44;;;;;;;12.37;8.53;;;;;;;19.10;71.59;99317.33;1790616;79;21113;-74
2021/05/28 06:15:12;;;;;;;7.90;6.75;;;;;;;19.09;71.52;99315.67;1787327;79;21060;-75
2021/05/28 06:17:38;;;;;;;10.03;7.95;;;;;;;19.16;71.01;99318.48;1794379;78;21057;-75
2021/05/28 06:20:06;;;;;;;8.88;7.40;;;;;;;19.23;70.14;99318.10;1782940;78;21056;-75
2021/05/28 06:22:33;;;;;;;10.75;8.18;;;;;;;19.23;69.48;99319.44;1773426;78;21099;-75
2021/05/28 06:24:59;;;;;;;9.88;8.15;;;;;;;19.24;69.10;99314.41;1789584;80;21568;-75
2021/05/28 06:27:27;;;;;;;8.80;7.20;;;;;;;19.27;68.93;99317.25;1781555;78;21611;-75
2021/05/28 06:29:54;;;;;;;9.08;7.15;;;;;;;19.32;68.59;99318.41;1787445;78;21595;-75
2021/05/28 06:32:20;;;;;;;10.78;8.33;;;;;;;19.44;68.57;99320.19;1785743;79;21068;-75
2021/05/28 06:34:46;;;;;;;11.40;9.33;;;;;;;19.62;68.65;99319.09;1799761;78;21029;-75
2021/05/28 06:37:13;;;;;;;11.73;9.85;;;;;;;19.68;68.87;99309.00;1783199;78;21062;-75
2021/05/28 06:39:39;;;;;;;10.88;9.78;;;;;;;19.76;68.97;99308.92;1792855;79;21601;-75
2021/05/28 06:42:07;;;;;;;10.35;8.73;;;;;;;19.82;68.73;99307.39;1729275;81;21085;-75
2021/05/28 06:44:33;;;;;;;11.65;9.28;;;;;;;19.95;68.97;99309.50;1771184;78;21030;-75
2021/05/28 06:47:00;;;;;;;11.80;10.25;;;;;;;20.23;68.92;99303.55;1751487;80;21078;-75
2021/05/28 06:49:26;;;;;;;13.65;10.63;;;;;;;20.35;67.88;99309.34;1766633;80;21018;-76
2021/05/28 06:51:53;;;;;;;12.80;11.08;;;;;;;20.36;67.65;99305.12;1797775;78;21094;-75
2021/05/28 06:54:19;;;;;;;9.95;8.78;;;;;;;20.34;67.60;99305.80;1806012;78;21037;-76
2021/05/28 06:56:47;;;;;;;9.78;8.45;;;;;;;20.31;67.88;99310.20;1797943;78;21106;-79
2021/05/28 06:59:13;;;;;;;10.98;9.78;;;;;;;20.43;66.53;99310.06;1794910;79;21085;-81
2021/05/28 07:01:40;;;;;;;11.63;9.70;;;;;;;20.60;65.94;99308.07;1767838;79;21125;-81
2021/05/28 07:04:06;;;;;;;10.70;9.60;;;;;;;20.62;65.83;99302.51;1774350;80;21058;-81
2021/05/28 07:06:33;;;;;;;10.15;9.10;;;;;;;20.62;65.84;99298.48;1773309;78;22176;-81
2021/05/28 07:08:59;;;;;;;10.45;8.23;;;;;;;20.63;66.84;99304.18;1773665;79;21607;-79
2021/05/28 07:11:26;;;;;;;9.58;8.03;;;;;;;20.73;66.11;99310.14;1778914;79;21202;-79
2021/05/28 07:13:52;;;;;;;9.58;8.40;;;;;;;20.89;65.51;99302.91;1765153;80;21059;-77
2021/05/28 07:16:20;;;;;;;7.58;6.62;;;;;;;20.91;64.47;99302.23;1783376;79;21038;-77
2021/05/28 07:18:48;;;;;;;8.98;7.47;;;;;;;20.93;64.12;99304.20;1758672;79;21065;-78
2021/05/28 07:21:15;;;;;;;10.38;7.60;;;;;;;21.01;63.19;99303.27;1766130;79;21097;-77
2021/05/28 07:23:44;;;;;;;9.78;7.37;;;;;;;21.06;62.79;99300.36;1755847;79;21100;-77
2021/05/28 07:26:10;;;;;;;9.65;7.87;;;;;;;21.20;62.10;99301.85;1782332;79;21054;-77
2021/05/28 07:28:36;;;;;;;10.80;7.50;;;;;;;21.36;61.52;99301.64;1771140;79;21121;-78
2021/05/28 07:31:03;;;;;;;9.75;7.62;;;;;;;21.50;61.30;99299.11;1754892;80;21089;-79
2021/05/28 07:33:30;;;;;;;10.40;8.45;;;;;;;21.57;61.47;99294.16;1753286;80;21078;-78
2021/05/28 07:35:57;;;;;;;12.53;9.73;;;;;;;21.71;61.24;99290.24;1755873;80;21045;-76
2021/05/28 07:39:53;;;;;;;10.85;8.43;;;;;;;21.93;60.22;99286.53;1816590;78;22993;-77
2021/05/28 07:42:20;;;;;;;25.17;9.90;;;;;;;21.95;60.53;99293.59;1797155;78;21038;-75
2021/05/28 07:44:48;;;;;;;12.68;8.78;;;;;;;21.90;60.73;99292.28;1770858;78;21605;-77
2021/05/28 07:47:15;;;;;;;14.65;9.65;;;;;;;21.94;61.43;99287.34;1712066;81;21149;-77
2021/05/28 07:49:42;;;;;;;12.47;10.95;;;;;;;22.02;61.78;99283.69;1719841;83;21066;-76
2021/05/28 07:52:08;;;;;;;11.53;10.32;;;;;;;22.10;60.50;99278.18;1698576;83;21666;-77
2021/05/28 07:54:35;;;;;;;13.58;11.20;;;;;;;22.13;60.41;99283.16;1714049;83;21633;-74
2021/05/28 07:57:04;;;;;;;14.25;12.40;;;;;;;22.16;60.07;99286.83;1725950;81;21109;-77
2021/05/28 07:59:31;;;;;;;10.75;9.68;;;;;;;22.07;60.43;99287.48;1722264;82;21045;-77
2021/05/28 08:01:57;;;;;;;12.45;10.75;;;;;;;22.05;60.66;99287.36;1713707;83;21014;-78
2021/05/28 08:04:23;;;;;;;11.63;10.43;;;;;;;22.15;61.14;99289.70;1728236;81;21043;-76
2021/05/28 08:06:51;;;;;;;13.55;11.22;;;;;;;22.23;60.41;99286.34;1711162;83;21558;-76
2021/05/28 08:09:19;;;;;;;13.03;11.05;;;;;;;22.30;59.59;99278.84;1731218;81;21045;-76
2021/05/28 08:11:45;;;;;;;12.85;10.23;;;;;;;22.21;59.72;99279.00;1730606;82;21613;-77
2021/05/28 08:14:11;;;;;;;13.05;10.82;;;;;;;22.22;60.20;99273.91;1731693;81;21041;-79
2021/05/28 08:16:38;;;;;;;13.43;11.60;;;;;;;22.33;60.44;99267.16;1730372;81;21064;-76
2021/05/28 08:19:05;;;;;;;13.75;12.35;;;;;;;22.49;60.45;99266.57;1723117;81;21077;-76
2021/05/28 08:21:31;;;;;;;13.48;12.13;;;;;;;22.57;59.51;99260.52;1724017;81;21098;-77
2021/05/28 08:23:58;;;;;;;12.37;10.82;;;;;;;22.57;59.71;99263.70;1716067;83;21010;-78
2021/05/28 08:26:24;;;;;;;13.05;11.63;;;;;;;22.62;59.19;99262.59;1723981;81;21053;-77
2021/05/28 08:28:50;;;;;;;14.03;12.60;;;;;;;22.63;59.17;99258.88;1723777;83;21106;-76
2021/05/28 08:31:17;;;;;;;13.20;11.80;;;;;;;22.69;59.62;99258.61;1720552;82;21081;-76
2021/05/28 08:33:45;;;;;;;14.15;12.47;;;;;;;22.80;59.17;99256.70;1708277;81;21092;-76
2021/05/28 08:36:13;;;;;;;12.37;11.08;;;;;;;22.83;58.54;99252.78;1700443;83;21062;-78
2021/05/28 08:38:39;;;;;;;15.30;11.75;;;;;;;22.82;58.65;99256.50;1726935;81;21649;-77
2021/05/28 08:41:06;;;;;;;11.28;10.18;;;;;;;22.84;58.97;99255.27;1710352;83;21030;-77
2021/05/28 08:43:32;;;;;;;12.23;10.98;;;;;;;22.89;59.24;99255.99;1719158;82;21049;-76
2021/05/28 08:46:07;;;;;;;11.22;10.03;;;;;;;22.99;59.03;99257.83;1689360;83;21161;-77
2021/05/28 08:48:28;;;;;;;13.20;11.80;;;;;;;23.14;57.97;99255.48;1716797;82;21075;-76
2021/05/28 08:50:57;;;;;;;12.82;11.00;;;;;;;23.26;57.43;99248.48;1710887;82;21083;-76
2021/05/28 08:53:24;;;;;;;13.00;10.95;;;;;;;23.40;57.19;99247.51;1715315;83;21059;-75
2021/05/28 08:55:51;;;;;;;14.73;11.15;;;;;;;23.60;57.77;99245.36;1713466;82;21095;-72
2021/05/28 08:58:20;;;;;;;15.45;12.10;;;;;;;23.76;57.82;99243.30;1714055;83;21065;-72
2021/05/28 09:00:46;;;;;;;12.30;11.03;;;;;;;23.75;55.68;99242.47;1718657;82;21034;-73
2021/05/28 09:03:29;;;;;;;11.90;10.70;;;;;;;23.63;54.93;99247.66;1701501;83;21094;-74
2021/05/28 09:05:59;;;;;;;13.43;11.18;;;;;;;23.49;56.04;99245.95;1682855;82;21073;-75
2021/05/28 09:08:35;;;;;;;11.15;9.20;;;;;;;23.42;55.67;99243.25;1704592;83;21082;-76
2021/05/28 09:11:09;;;;;;;11.55;10.20;;;;;;;23.36;55.65;99240.02;1713380;82;21072;-76
2021/05/28 09:13:50;;;;;;;10.75;9.78;;;;;;;23.36;55.83;99244.91;1703513;83;21050;-77
2021/05/28 09:16:22;;;;;;;12.30;9.93;;;;;;;23.46;56.08;99236.41;1692594;82;22210;-75
2021/05/28 09:18:54;;;;;;;11.65;10.55;;;;;;;23.61;55.55;99240.27;1708143;82;21070;-76
2021/05/28 09:21:33;;;;;;;12.00;10.63;;;;;;;23.72;55.47;99234.77;1714843;83;21044;-76
2021/05/28 09:24:06;;;;;;;12.40;11.08;;;;;;;23.78;55.38;99233.13;1713134;82;21066;-76
2021/05/28 09:26:34;;;;;;;13.72;10.35;;;;;;;23.84;55.31;99229.08;1718679;83;21671;-76
2021/05/28 09:29:01;;;;;;;10.13;8.65;;;;;;;23.93;54.01;99226.22;1727183;82;21089;-76
2021/05/28 09:31:36;;;;;;;15.85;14.20;;;;;;;23.92;54.54;99225.90;1712242;83;21065;-77
2021/05/28 09:33:59;;;;;;;17.40;14.78;;;;;;;23.97;55.44;99218.00;1712657;82;21077;-78
2021/05/28 09:36:36;;;;;;;17.90;16.00;;;;;;;23.96;55.65;99223.91;1705646;83;21034;-78
2021/05/28 09:39:09;;;;;;;15.93;14.33;;;;;;;23.96;55.97;99222.55;1709143;82;21054;-77
2021/05/28 09:41:39;;;;;;;;;;;;;;;23.95;55.85;99220.92;1722391;82;21069;-76
2021/05/28 09:44:28;;;;;;;16.50;14.90;;;;;;;24.00;55.30;99218.42;1713570;82;20177;-77
2021/05/28 09:47:07;;;;;;;13.93;12.43;;;;;;;23.89;54.23;99217.13;1738065;81;21725;-77
2021/05/28 09:49:41;;;;;;;13.05;11.75;;;;;;;23.81;54.69;99207.05;1733020;80;21086;-77
2021/05/28 09:52:15;;;;;;;12.23;11.03;;;;;;;23.84;54.81;99206.13;1745140;80;21086;-77
2021/05/28 09:55:01;;;;;;;19.10;16.50;;;;;;;23.92;55.03;99201.59;1754506;80;21006;-80
2021/05/28 09:57:39;;;;;;;16.40;12.95;;;;;;;24.01;54.96;99201.16;1747789;80;21605;-77
2021/05/28 10:00:10;;;;;;;16.12;13.80;;;;;;;24.12;55.01;99200.20;1758092;80;21061;-75
2021/05/28 10:02:42;;;;;;;18.42;15.60;;;;;;;24.18;54.72;99195.31;1733195;81;21087;-74
2021/05/28 10:05:05;;;;;;;15.63;13.98;;;;;;;24.20;53.96;99201.35;1747217;81;21066;-73
2021/05/28 10:07:32;;;;;;;15.55;13.95;;;;;;;24.04;54.13;99195.35;1744476;80;21035;-73
2021/05/28 10:09:58;;;;;;;16.85;13.95;;;;;;;23.94;54.58;99196.80;1743515;81;21054;-74
2021/05/28 10:12:25;;;;;;;13.48;12.15;;;;;;;23.85;54.36;99193.45;1750296;82;21086;-78
2021/05/28 10:14:52;;;;;;;15.43;12.95;;;;;;;23.82;54.09;99191.99;1733295;81;21041;-75
2021/05/28 10:17:19;;;;;;;13.43;11.88;;;;;;;23.89;53.90;99186.08;1732548;80;20995;-75
2021/05/28 10:19:45;;;;;;;14.58;13.08;;;;;;;24.02;53.74;99181.75;1737000;80;21117;-76
2021/05/28 10:22:13;;;;;;;13.22;11.90;;;;;;;24.17;53.65;99176.09;1736630;81;21086;-78
2021/05/28 10:24:40;;;;;;;14.10;12.50;;;;;;;24.17;53.14;99180.14;1733153;81;21101;-75
2021/05/28 10:27:07;;;;;;;13.75;12.18;;;;;;;24.10;52.80;99173.94;1724645;80;21038;-76
2021/05/28 10:29:36;;;;;;;13.55;12.15;;;;;;;24.05;53.00;99175.41;1740165;80;21067;-75
2021/05/28 10:32:11;;;;;;;12.93;11.43;;;;;;;23.96;53.27;99168.55;1744173;81;21063;-74
2021/05/28 10:35:11;;;;;;;14.68;12.70;;;;;;;23.94;53.48;99167.95;1752294;81;21017;-76
2021/05/28 10:37:43;;;;;;;12.70;11.43;;;;;;;23.94;53.86;99165.24;1746498;80;21052;-75
2021/05/28 10:40:30;;;;;;;15.10;13.60;;;;;;;24.01;53.30;99154.42;1734940;80;21065;-75
2021/05/28 10:43:06;;;;;;;16.40;13.05;;;;;;;23.99;53.10;99158.69;1743022;80;21032;-76
2021/05/28 10:45:56;;;;;;;16.48;14.78;;;;;;;24.05;53.88;99156.51;1734885;80;21107;-76
2021/05/28 10:48:46;;;;;;;15.18;13.58;;;;;;;24.18;53.26;99156.15;1746386;80;21036;-78
2021/05/28 10:51:23;;;;;;;16.42;14.65;;;;;;;24.23;52.38;99154.99;1698116;84;21573;-75
2021/05/28 10:53:58;;;;;;;14.33;12.82;;;;;;;24.37;52.81;99153.08;1672695;83;21162;-76
2021/05/28 10:56:30;;;;;;;14.75;13.35;;;;;;;24.53;53.06;99149.09;1702115;83;21576;-76
2021/05/28 10:59:15;;;;;;;17.12;15.43;;;;;;;24.69;52.46;99143.23;1703941;82;21051;-77
2021/05/28 11:01:57;;;;;;;16.37;14.25;;;;;;;24.64;51.55;99140.85;1689691;82;21078;-72
2021/05/28 11:04:33;;;;;;;16.57;13.90;;;;;;;24.48;51.83;99139.45;1718199;82;21059;-77
2021/05/28 11:07:12;;;;;;;15.55;14.03;;;;;;;24.40;52.91;99132.41;1709095;83;21074;-73
2021/05/28 11:09:46;;;;;;;18.95;15.38;;;;;;;24.43;52.78;99132.50;1718732;82;21075;-71
2021/05/28 11:12:27;;;;;;;19.23;15.95;;;;;;;24.47;53.10;99131.03;1716098;82;21034;-72
2021/05/28 11:15:10;;;;;;;21.05;16.77;;;;;;;24.50;53.56;99126.03;1712682;83;21063;-72
2021/05/28 11:17:58;;;;;;;;;;;;;;;24.53;53.32;99116.66;1715890;82;21511;-72
2021/05/28 11:20:31;;;;;;;22.22;19.87;;;;;;;24.58;53.16;99111.44;1684812;84;20200;-72
2021/05/28 11:22:59;;;;;;;23.35;19.52;;;;;;;24.52;53.11;99107.70;1715726;82;21097;-73
2021/05/28 11:25:33;;;;;;;23.38;20.52;;;;;;;24.38;53.32;99112.33;1704629;82;21562;-73
2021/05/28 11:28:09;;;;;;;21.73;19.55;;;;;;;24.30;53.63;99109.88;1709919;82;21350;-72
2021/05/28 11:30:41;;;;;;;23.30;20.90;;;;;;;24.23;54.07;99102.31;1705443;84;21100;-75
2021/05/28 11:33:08;;;;;;;21.15;18.92;;;;;;;24.10;54.70;99095.61;1752090;80;21090;-73